Time;durP1;ratioP1;P1;durP2;ratioP2;P2;SDS_P1;SDS_P2;PMS_P1;PMS_P2;Temp;Humidity;BMP_temperature;BMP_pressure;BME280_temperature;BME280_humidity;BME280_pressure;Samples;Min_cycle;Max_cycle;Signal;HPM_P1;HPM_P2
2021/11/01 00:01:02;;;;;;;18.27;12.35;;;;;;;8.60;64.55;99928.66;1720203;82;21434;-69
2021/11/01 00:03:28;;;;;;;22.00;12.05;;;;;;;8.62;64.50;99925.62;1711785;83;21344;-69
2021/11/01 00:05:55;;;;;;;19.23;12.07;;;;;;;8.63;64.56;99927.76;1710228;83;20898;-69
2021/11/01 00:08:21;;;;;;;;;;;;;;;8.63;64.60;99923.45;1715201;82;20965;-69
2021/11/01 00:10:47;;;;;;;20.90;11.78;;;;;;;8.67;64.79;99916.51;1711757;82;20526;-69
2021/11/01 00:13:13;;;;;;;21.53;12.83;;;;;;;8.69;64.64;99912.17;1720433;82;20890;-69
2021/11/01 00:15:39;;;;;;;19.20;12.43;;;;;;;8.75;64.66;99905.61;1720482;83;21627;-69
2021/11/01 00:18:07;;;;;;;20.17;12.63;;;;;;;8.79;64.68;99910.27;1720700;82;20881;-69
2021/11/01 00:20:33;;;;;;;17.85;11.83;;;;;;;8.84;64.65;99901.53;1718676;82;26342;-69
2021/11/01 00:22:59;;;;;;;20.67;14.07;;;;;;;8.86;64.66;99889.45;1720509;83;20874;-69
2021/11/01 00:25:25;;;;;;;21.43;12.03;;;;;;;8.89;64.66;99885.53;1704767;83;20917;-69
2021/11/01 00:27:51;;;;;;;21.90;13.03;;;;;;;8.93;64.67;99887.60;1717043;83;20878;-69
2021/11/01 00:30:19;;;;;;;19.82;11.88;;;;;;;8.94;64.67;99876.41;1719650;83;21489;-69
2021/11/01 00:32:47;;;;;;;20.10;12.40;;;;;;;8.95;64.68;99880.25;1715319;83;21553;-69
2021/11/01 00:35:13;;;;;;;20.90;12.98;;;;;;;8.97;64.68;99877.63;1715055;83;20957;-69
2021/11/01 00:37:43;;;;;;;19.95;12.88;;;;;;;8.97;64.68;99878.92;1720538;82;21552;-69
2021/11/01 00:40:10;;;;;;;19.25;12.68;;;;;;;8.94;64.71;99870.81;1720811;83;21532;-69
2021/11/01 00:42:36;;;;;;;20.72;12.85;;;;;;;8.95;64.70;99869.94;1714157;83;20895;-69
2021/11/01 00:45:03;;;;;;;17.77;12.03;;;;;;;8.96;64.76;99866.47;1710560;82;20961;-69
2021/11/01 00:47:29;;;;;;;23.55;13.28;;;;;;;8.95;64.72;99860.06;1718631;82;20956;-69
2021/11/01 00:49:56;;;;;;;23.60;13.10;;;;;;;8.95;64.79;99861.34;1720542;83;21706;-69
2021/11/01 00:52:26;;;;;;;18.07;11.83;;;;;;;8.95;64.78;99856.19;1711879;83;20948;-69
2021/11/01 00:54:58;;;;;;;20.80;12.90;;;;;;;8.91;64.80;99856.70;1710464;83;21390;-69
2021/11/01 00:57:22;;;;;;;17.60;12.13;;;;;;;8.89;64.79;99858.46;1719417;81;20917;-69
2021/11/01 00:59:48;;;;;;;22.20;12.58;;;;;;;8.89;64.84;99848.59;1713996;82;21545;-69
2021/11/01 01:02:32;;;;;;;21.95;12.13;;;;;;;8.88;64.87;99850.75;1718980;83;20938;-69
2021/11/01 01:04:57;;;;;;;18.02;12.35;;;;;;;8.89;64.88;99850.72;1720053;83;21406;-69
2021/11/01 01:07:23;;;;;;;19.77;12.57;;;;;;;8.91;64.89;99842.95;1697456;83;20890;-69
2021/11/01 01:09:55;;;;;;;20.50;11.78;;;;;;;8.92;64.91;99841.64;1721599;82;20901;-69
2021/11/01 01:12:22;;;;;;;18.80;12.00;;;;;;;8.93;64.91;99836.89;1725549;82;21580;-69
2021/11/01 01:15:06;;;;;;;;;;;;;;;8.94;64.92;99832.14;1726117;82;21231;-69
2021/11/01 01:17:21;;;;;;;20.20;11.64;;;;;;;8.94;64.99;99832.14;1672283;82;5001089;-69
2021/11/01 01:20:03;;;;;;;;;;;;;;;8.95;64.93;99832.98;1730683;82;20902;-69
2021/11/01 01:22:29;;;;;;;;;;;;;;;8.95;65.02;99825.25;1717077;82;20119;-69
2021/11/01 01:25:14;;;;;;;16.07;11.05;;;;;;;8.93;65.00;99825.73;1724052;82;20144;-69
2021/11/01 01:27:39;;;;;;;20.35;12.43;;;;;;;8.92;64.93;99815.86;1721856;82;20921;-69
2021/11/01 01:30:08;;;;;;;19.40;12.28;;;;;;;8.89;64.96;99818.50;1728054;82;20945;-69
2021/11/01 01:32:35;;;;;;;22.60;12.93;;;;;;;8.89;64.99;99803.03;1726758;82;21421;-69
2021/11/01 01:35:01;;;;;;;19.37;11.90;;;;;;;8.89;64.99;99802.18;1719467;82;20921;-69
2021/11/01 01:37:27;;;;;;;20.47;12.77;;;;;;;8.88;64.98;99799.20;1729837;82;20933;-69
2021/11/01 01:39:53;;;;;;;18.70;11.80;;;;;;;8.85;65.18;99794.95;1729640;82;20905;-69
2021/11/01 01:42:19;;;;;;;20.07;12.33;;;;;;;8.85;65.18;99794.95;1708708;82;22135;-69
2021/11/01 01:44:46;;;;;;;;;;;;;;;8.83;64.99;99793.33;1718055;82;20902;-69
2021/11/01 01:47:12;;;;;;;18.20;12.03;;;;;;;8.80;65.09;99798.11;1726308;82;20233;-69
2021/11/01 01:49:38;;;;;;;19.93;11.20;;;;;;;8.79;65.04;99786.54;1722808;82;20948;-69
2021/11/01 01:52:05;;;;;;;17.57;12.37;;;;;;;8.75;65.02;99796.06;1718365;82;20928;-69
2021/11/01 01:54:31;;;;;;;;;;;;;;;8.72;65.04;99795.28;1731051;82;21635;-69
2021/11/01 01:56:57;;;;;;;20.30;13.15;;;;;;;8.67;65.14;99792.80;1705665;82;20135;-69
2021/11/01 01:59:23;;;;;;;21.30;12.20;;;;;;;8.62;65.07;99791.61;1723726;82;20889;-69
2021/11/01 02:01:50;;;;;;;17.23;11.78;;;;;;;8.58;65.10;99783.98;1722076;82;20925;-69
2021/11/01 02:04:24;;;;;;;21.23;12.73;;;;;;;8.54;65.13;99792.66;1728369;82;20954;-69
2021/11/01 02:07:12;;;;;;;20.65;12.88;;;;;;;8.52;65.12;99789.27;1720677;82;20928;-69
2021/11/01 02:09:58;;;;;;;18.17;12.20;;;;;;;8.48;65.17;99778.61;1719960;82;20949;-69
2021/11/01 02:13:05;;;;;;;19.77;13.08;;;;;;;8.45;65.16;99778.67;1721703;82;20917;-69
2021/11/01 02:15:49;;;;;;;17.15;12.03;;;;;;;8.39;65.17;99769.34;1729396;82;20901;-69
2021/11/01 02:18:17;;;;;;;21.27;12.63;;;;;;;8.32;65.19;99765.16;1719319;82;20964;-69
2021/11/01 02:21:05;;;;;;;18.65;12.23;;;;;;;8.27;65.23;99772.16;1733740;82;20957;-69
2021/11/01 02:23:44;;;;;;;17.35;12.45;;;;;;;8.22;65.23;99765.81;1722469;82;20905;-69
2021/11/01 02:26:12;;;;;;;17.17;11.80;;;;;;;8.17;65.27;99766.78;1694986;82;21492;-69
2021/11/01 02:28:40;;;;;;;17.48;12.25;;;;;;;8.15;65.33;99759.53;1728153;82;20917;-69
2021/11/01 02:31:11;;;;;;;19.82;12.75;;;;;;;8.13;65.34;99750.55;1727428;82;20917;-69
2021/11/01 02:33:39;;;;;;;18.37;12.50;;;;;;;8.12;65.35;99748.84;1730741;82;20877;-69
2021/11/01 02:36:06;;;;;;;17.50;11.95;;;;;;;8.12;65.39;99743.70;1705745;81;20932;-69
2021/11/01 02:38:33;;;;;;;23.40;12.65;;;;;;;8.11;65.38;99740.72;1733085;82;20925;-69
2021/11/01 02:41:20;;;;;;;20.70;13.32;;;;;;;8.09;65.38;99736.48;1714411;82;20945;-69
2021/11/01 02:43:58;;;;;;;20.50;12.18;;;;;;;8.12;65.42;99737.70;1732123;82;20960;-69
2021/11/01 02:46:26;;;;;;;18.07;12.80;;;;;;;8.11;65.42;99741.16;1730987;82;20876;-69
2021/11/01 02:48:53;;;;;;;21.07;12.95;;;;;;;8.09;65.44;99739.90;1727578;82;20921;-69
2021/11/01 02:51:22;;;;;;;18.85;12.63;;;;;;;8.09;65.46;99740.34;1730430;82;20941;-69
2021/11/01 02:53:50;;;;;;;19.70;13.13;;;;;;;8.06;65.55;99727.09;1732263;82;20905;-69
2021/11/01 02:56:17;;;;;;;18.02;12.88;;;;;;;8.08;65.54;99729.19;1733353;82;20917;-69
2021/11/01 02:58:46;;;;;;;17.87;12.28;;;;;;;8.08;65.59;99725.33;1731983;82;20906;-69
2021/11/01 03:01:16;;;;;;;20.02;11.60;;;;;;;8.08;65.58;99722.75;1706827;82;20920;-69
2021/11/01 03:03:43;;;;;;;18.17;13.30;;;;;;;8.09;65.59;99724.89;1721698;82;20957;-69
2021/11/01 03:06:15;;;;;;;19.05;12.30;;;;;;;8.08;65.62;99721.91;1723901;82;20948;-69
2021/11/01 03:08:42;;;;;;;18.92;12.78;;;;;;;8.07;65.63;99718.92;1708695;82;20933;-69
2021/11/01 03:11:09;;;;;;;19.23;12.70;;;;;;;8.05;65.66;99727.11;1705332;82;20960;-69
2021/11/01 03:13:36;;;;;;;16.60;12.18;;;;;;;8.03;65.61;99723.72;1732314;82;20920;-69
2021/11/01 03:16:06;;;;;;;19.55;13.10;;;;;;;7.98;65.68;99719.52;1722281;82;20996;-69
2021/11/01 03:18:45;;;;;;;21.57;13.55;;;;;;;7.97;65.72;99719.11;1730632;82;20921;-69
2021/11/01 03:21:15;;;;;;;18.75;12.70;;;;;;;7.96;65.75;99709.69;1733713;82;20953;-69
2021/11/01 03:23:47;;;;;;;15.23;12.33;;;;;;;7.95;65.81;99704.56;1733340;81;20904;-69
2021/11/01 03:26:21;;;;;;;16.82;12.20;;;;;;;7.91;65.79;99715.80;1733392;82;20929;-69
2021/11/01 03:28:54;;;;;;;22.67;12.53;;;;;;;7.88;65.81;99710.27;1706475;82;20941;-69
2021/11/01 03:31:23;;;;;;;17.42;12.15;;;;;;;7.85;65.90;99704.34;1733840;82;20948;-69
2021/11/01 03:33:56;;;;;;;16.07;11.35;;;;;;;7.83;65.93;99700.95;1732322;82;20928;-69
2021/11/01 03:36:23;;;;;;;17.23;12.15;;;;;;;7.81;65.92;99700.97;1726695;82;20964;-69
2021/11/01 03:38:51;;;;;;;20.02;13.40;;;;;;;7.79;65.95;99695.48;1722928;82;20885;-69
2021/11/01 03:41:18;;;;;;;20.55;12.75;;;;;;;7.77;65.95;99700.66;1729282;82;20931;-69
2021/11/01 03:43:56;;;;;;;22.62;14.00;;;;;;;7.74;65.99;99687.84;1730141;82;20956;-69
2021/11/01 03:46:33;;;;;;;19.95;14.10;;;;;;;7.71;66.00;99692.20;1723957;82;20916;-69
2021/11/01 03:48:52;;;;;;;19.20;13.15;;;;;;;7.66;66.02;99685.86;1725713;82;20867;-69
2021/11/01 03:54:03;;;;;;;19.20;13.62;;;;;;;7.55;66.07;99695.06;1709353;82;20916;-69
2021/11/01 03:56:33;;;;;;;16.67;12.82;;;;;;;7.52;66.12;99689.97;1721574;82;20877;-69
2021/11/01 03:58:59;;;;;;;15.58;12.13;;;;;;;7.49;66.19;99681.46;1703248;82;21044;-69
2021/11/01 04:01:25;;;;;;;16.23;12.70;;;;;;;7.48;66.20;99683.63;1728211;81;20971;-69
2021/11/01 04:03:55;;;;;;;18.62;12.85;;;;;;;7.47;66.23;99680.64;1733503;81;20913;-69
2021/11/01 04:06:22;;;;;;;15.95;11.57;;;;;;;7.43;66.24;99674.70;1733758;82;20917;-69
2021/11/01 04:08:50;;;;;;;24.02;13.08;;;;;;;7.43;66.30;99674.70;1733719;82;20853;-69
2021/11/01 04:11:21;;;;;;;18.77;13.08;;;;;;;7.42;66.31;99673.45;1731830;82;20960;-69
2021/11/01 04:13:44;;;;;;;23.00;13.75;;;;;;;7.41;66.34;99678.18;1716541;82;20962;-69
2021/11/01 04:16:13;;;;;;;19.05;12.35;;;;;;;7.40;66.38;99682.91;1725523;82;20940;-69
2021/11/01 04:21:17;;;;;;;17.65;12.18;;;;;;;7.41;66.41;99676.45;1729488;82;20944;-69
2021/11/01 04:23:43;;;;;;;22.17;13.58;;;;;;;7.40;66.49;99674.77;1729738;82;20917;-69
2021/11/01 04:26:09;;;;;;;15.53;11.90;;;;;;;7.40;66.50;99676.05;1729342;82;20857;-69
2021/11/01 04:28:47;;;;;;;18.80;12.65;;;;;;;7.40;66.55;99670.91;1728111;82;20913;-69
2021/11/01 04:31:25;;;;;;;17.90;12.60;;;;;;;7.40;66.57;99676.05;1729645;82;20881;-69
2021/11/01 04:33:45;;;;;;;19.17;13.20;;;;;;;7.40;66.60;99670.91;1728008;82;20961;-69
2021/11/01 04:36:11;;;;;;;16.57;11.83;;;;;;;7.40;66.58;99670.05;1729070;82;20921;-69
2021/11/01 04:43:58;;;;;;;15.58;11.85;;;;;;;7.34;66.64;99656.88;1722201;82;20889;-69
2021/11/01 04:54:19;;;;;;;16.48;12.37;;;;;;;7.27;66.83;99643.31;1721133;83;20992;-69
2021/11/01 04:56:46;;;;;;;17.80;13.30;;;;;;;7.26;66.87;99641.61;1722154;83;21051;-69
2021/11/01 04:59:13;;;;;;;15.83;11.15;;;;;;;7.25;66.88;99637.34;1726741;82;22242;-69
2021/11/01 05:01:49;;;;;;;17.57;12.33;;;;;;;7.24;66.90;99636.94;1719391;82;21120;-69
2021/11/01 05:04:13;;;;;;;18.02;12.55;;;;;;;7.24;66.91;99632.23;1721414;82;21107;-69
2021/11/01 05:06:43;;;;;;;21.65;12.82;;;;;;;7.22;66.92;99630.97;1720575;82;21100;-69
2021/11/01 05:09:13;;;;;;;19.32;14.07;;;;;;;7.23;66.97;99627.96;1704643;82;21036;-69
2021/11/01 05:14:30;;;;;;;18.40;12.85;;;;;;;7.23;67.05;99623.67;1740005;81;21109;-69
2021/11/01 05:17:00;;;;;;;18.50;13.45;;;;;;;7.23;67.05;99626.67;1742079;82;20971;-69
2021/11/01 05:19:25;;;;;;;20.97;12.80;;;;;;;7.21;67.06;99622.84;1735174;82;20946;-69
2021/11/01 05:24:42;;;;;;;18.35;12.78;;;;;;;7.18;67.14;99622.91;1728477;81;20931;-69
2021/11/01 05:29:32;;;;;;;20.43;13.45;;;;;;;7.18;67.24;99628.05;1736782;82;20867;-69
2021/11/01 05:32:07;;;;;;;16.52;12.30;;;;;;;7.18;67.24;99631.91;1740087;82;20935;-69
2021/11/01 05:34:26;;;;;;;17.20;12.35;;;;;;;7.18;67.27;99629.33;1740710;82;20962;-68
2021/11/01 05:36:53;;;;;;;17.02;13.32;;;;;;;7.18;67.28;99627.20;1737299;82;20931;-69
2021/11/01 05:39:19;;;;;;;19.23;14.13;;;;;;;7.17;67.34;99630.64;1739406;82;20967;-69
2021/11/01 05:41:45;;;;;;;17.40;13.28;;;;;;;7.17;67.37;99626.35;1740346;82;20931;-69
2021/11/01 05:44:11;;;;;;;18.65;12.78;;;;;;;7.19;67.37;99632.75;1744769;82;21886;-69
2021/11/01 05:46:42;;;;;;;18.17;12.98;;;;;;;7.18;67.43;99628.05;1734957;82;20970;-69
2021/11/01 05:49:08;;;;;;;19.50;13.78;;;;;;;7.17;67.46;99628.92;1737502;82;20907;-69
2021/11/01 05:51:36;;;;;;;22.07;14.15;;;;;;;7.17;67.47;99626.35;1744175;82;20939;-69
2021/11/01 05:54:09;;;;;;;17.12;12.82;;;;;;;7.16;67.51;99629.80;1735446;81;20931;-69
2021/11/01 05:56:47;;;;;;;19.75;13.68;;;;;;;7.15;67.55;99625.97;1731054;81;21124;-69
2021/11/01 06:01:53;;;;;;;17.77;13.37;;;;;;;7.13;67.64;99638.00;1736947;82;20963;-69
2021/11/01 06:14:51;;;;;;;18.30;13.80;;;;;;;7.17;67.72;99640.48;1738057;82;20972;-69
2021/11/01 06:17:18;;;;;;;18.62;13.83;;;;;;;7.20;67.80;99635.30;1741984;81;22005;-69
2021/11/01 06:19:44;;;;;;;20.97;13.80;;;;;;;7.23;67.83;99633.10;1738832;81;20957;-69
2021/11/01 06:22:10;;;;;;;18.17;13.15;;;;;;;7.26;67.85;99625.34;1739367;81;20927;-69
2021/11/01 06:24:51;;;;;;;19.45;13.65;;;;;;;7.32;67.87;99621.34;1737455;81;20986;-69
2021/11/01 06:27:18;;;;;;;21.45;14.63;;;;;;;7.37;67.88;99623.82;1740943;81;20939;-69
2021/11/01 06:29:56;;;;;;;22.50;14.45;;;;;;;7.43;67.96;99631.42;1741368;82;20959;-69
2021/11/01 06:43:15;;;;;;;17.20;13.40;;;;;;;7.78;68.15;99648.75;1742334;81;20206;-69
2021/11/01 06:46:02;;;;;;;19.57;13.58;;;;;;;7.85;68.11;99638.70;1732183;80;21029;-69
2021/11/01 06:51:02;;;;;;;20.05;14.93;;;;;;;8.08;68.17;99644.67;1715184;82;21013;-72
2021/11/01 06:58:54;;;;;;;18.27;13.43;;;;;;;8.36;68.16;99652.64;1670043;83;21114;-72
2021/11/01 07:15:12;;;;;;;17.98;13.22;;;;;;;8.77;68.32;99663.30;1736894;81;21108;-72
2021/11/01 07:17:38;;;;;;;17.62;13.40;;;;;;;8.82;68.29;99662.30;1740962;81;21000;-72
2021/11/01 07:25:46;;;;;;;16.90;12.75;;;;;;;8.91;68.35;99667.20;1754850;80;21046;-68
2021/11/01 07:38:20;;;;;;;18.07;12.95;;;;;;;9.07;68.42;99673.27;1732907;81;21086;-68
2021/11/01 08:22:45;;;;;;;17.00;12.58;;;;;;;10.49;68.48;99655.91;1731580;82;21528;-70
2021/11/01 08:46:31;;;;;;;19.50;12.37;;;;;;;11.25;68.39;99657.29;1733616;81;21473;-70
2021/11/01 08:49:01;;;;;;;19.25;12.20;;;;;;;11.34;68.34;99656.97;1728132;81;21472;-70
2021/11/01 08:51:48;;;;;;;14.87;12.53;;;;;;;11.42;68.33;99659.30;1719785;81;21052;-70
2021/11/01 09:02:42;;;;;;;15.35;12.15;;;;;;;11.74;68.23;99664.61;1736359;81;21481;-70
2021/11/01 09:21:34;;;;;;;16.93;13.35;;;;;;;12.39;68.16;99672.55;1703290;83;21377;-70
2021/11/01 09:26:32;;;;;;;15.40;12.35;;;;;;;12.62;68.05;99669.03;1677773;83;21374;-70
2021/11/01 09:29:00;;;;;;;15.83;12.68;;;;;;;12.67;67.97;99668.39;1686566;83;21779;-70
2021/11/01 09:37:07;;;;;;;17.92;12.88;;;;;;;12.82;67.86;99674.73;1674829;84;21135;-72
2021/11/01 09:42:09;;;;;;;16.32;13.93;;;;;;;12.92;67.84;99663.92;1674810;84;22215;-72
2021/11/01 09:44:36;;;;;;;18.77;13.28;;;;;;;13.00;67.76;99670.55;1679521;84;21491;-69
2021/11/01 09:47:04;;;;;;;18.10;12.90;;;;;;;13.03;67.70;99678.17;1670259;84;21098;-69
2021/11/01 09:49:31;;;;;;;16.55;13.75;;;;;;;12.97;67.67;99657.70;1673945;84;21549;-70
2021/11/01 09:52:06;;;;;;;15.43;13.28;;;;;;;13.15;67.72;99675.08;1654373;84;21539;-70
2021/11/01 09:54:31;;;;;;;17.45;13.05;;;;;;;13.20;67.69;99675.31;1671941;84;20987;-70
2021/11/01 09:57:07;;;;;;;17.80;13.98;;;;;;;13.27;67.68;99670.70;1675090;84;20995;-70
2021/11/01 09:59:36;;;;;;;;;;;;;;;13.34;67.56;99672.14;1635837;86;21600;-70
2021/11/01 10:02:03;;;;;;;14.85;12.78;;;;;;;13.40;67.39;99673.63;1647462;85;20168;-70
2021/11/01 10:04:35;;;;;;;16.15;13.13;;;;;;;13.46;67.50;99675.52;1647694;85;20945;-70
2021/11/01 10:10:00;;;;;;;16.10;13.03;;;;;;;13.57;67.44;99675.87;1728116;81;176060;-70
2021/11/01 10:12:31;;;;;;;17.53;14.30;;;;;;;13.64;67.41;99676.91;1705720;82;21394;-70
2021/11/01 10:18:04;;;;;;;18.52;13.83;;;;;;;13.76;67.21;99674.61;1702837;83;21516;-70
2021/11/01 10:20:36;;;;;;;15.20;13.15;;;;;;;13.82;67.29;99677.40;1674500;83;21397;-70
2021/11/01 10:23:19;;;;;;;21.35;13.83;;;;;;;13.87;67.20;99681.48;1711851;81;21004;-70
2021/11/01 10:25:47;;;;;;;15.63;12.65;;;;;;;13.89;67.12;99675.77;1737137;81;21393;-70
2021/11/01 10:28:13;;;;;;;17.87;13.68;;;;;;;13.91;67.11;99679.14;1706656;84;21540;-70
2021/11/01 10:30:40;;;;;;;14.90;13.15;;;;;;;13.97;67.12;99676.72;1703874;83;21376;-70
2021/11/01 10:33:09;;;;;;;20.02;13.68;;;;;;;14.00;67.04;99679.19;1682476;82;429124;-69
2021/11/01 10:35:43;;;;;;;16.07;14.38;;;;;;;14.01;66.95;99683.92;1719589;83;20958;-70
2021/11/01 10:38:36;;;;;;;16.07;13.78;;;;;;;14.05;66.97;99671.14;1718793;83;21395;-70
2021/11/01 10:41:12;;;;;;;15.53;13.93;;;;;;;14.09;66.92;99670.94;1702660;83;21500;-70
2021/11/01 10:44:01;;;;;;;15.32;13.28;;;;;;;14.13;66.91;99673.78;1656479;85;21631;-69
2021/11/01 11:11:58;;;;;;;18.87;14.50;;;;;;;14.60;66.41;99685.52;1689290;83;22025;-70
2021/11/01 11:14:20;;;;;;;18.90;14.40;;;;;;;14.62;66.41;99686.28;1667910;85;20957;-70
2021/11/01 11:17:05;;;;;;;18.77;13.30;;;;;;;14.65;66.26;99682.23;1713189;82;21378;-70
2021/11/01 11:25:10;;;;;;;17.42;14.30;;;;;;;14.70;66.16;99678.95;1714328;83;21847;-72
2021/11/01 11:26:56;;;;;;;19.12;14.10;;;;;;;14.71;66.16;99680.19;1672325;83;20921;-71
2021/11/01 11:29:41;;;;;;;18.60;15.78;;;;;;;14.74;66.14;99676.59;1716945;83;21771;-73
2021/11/01 11:38:07;;;;;;;18.02;14.00;;;;;;;14.71;65.99;99686.69;1723860;83;20957;-74
2021/11/01 11:48:35;;;;;;;22.42;15.75;;;;;;;14.71;65.84;99687.15;1721500;83;21041;-71
2021/11/01 11:51:09;;;;;;;21.82;15.43;;;;;;;14.71;65.79;99685.39;1715120;82;20973;-71
2021/11/01 11:53:59;;;;;;;18.92;14.33;;;;;;;14.71;65.73;99689.75;1717550;83;20914;-71
2021/11/01 11:56:32;;;;;;;19.80;15.05;;;;;;;14.67;65.71;99685.16;1715961;82;20946;-71
2021/11/01 11:59:01;;;;;;;24.27;16.30;;;;;;;14.65;65.69;99690.04;1720855;83;20937;-72
2021/11/01 12:01:31;;;;;;;19.45;15.28;;;;;;;14.65;65.68;99688.73;1713877;82;20933;-72
2021/11/01 12:03:59;;;;;;;18.57;15.70;;;;;;;14.66;65.64;99690.43;1716375;82;20953;-73
2021/11/01 12:06:49;;;;;;;19.02;15.85;;;;;;;14.67;65.63;99690.81;1722991;82;20874;-72
2021/11/01 12:09:21;;;;;;;21.57;16.80;;;;;;;14.68;65.63;99695.10;1706949;81;20984;-73
2021/11/01 12:12:14;;;;;;;15.98;14.07;;;;;;;14.73;65.56;99696.56;1719271;83;21033;-73
2021/11/01 12:14:41;;;;;;;24.00;15.28;;;;;;;14.76;65.54;99699.48;1718002;82;20906;-73
2021/11/01 12:17:12;;;;;;;21.68;15.80;;;;;;;14.79;65.53;99703.24;1702395;83;20961;-73
2021/11/01 12:19:39;;;;;;;18.57;15.10;;;;;;;14.84;65.49;99699.96;1718206;83;20895;-73
2021/11/01 12:22:13;;;;;;;21.82;15.80;;;;;;;14.85;65.46;99698.59;1691085;84;21023;-73
2021/11/01 12:24:50;;;;;;;20.95;15.65;;;;;;;14.88;65.46;99695.00;1702482;83;20877;-73
2021/11/01 12:27:18;;;;;;;19.80;16.37;;;;;;;14.92;65.41;99693.93;1717902;83;20949;-72
2021/11/01 12:29:44;;;;;;;;;;;;;;;14.95;65.39;99690.34;1720493;83;20878;-72
2021/11/01 12:32:14;;;;;;;19.85;15.98;;;;;;;14.97;65.15;99687.20;1718369;82;20155;-72
2021/11/01 12:37:39;;;;;;;22.17;16.35;;;;;;;14.97;65.31;99686.74;1718250;83;20866;-72
2021/11/01 12:42:58;;;;;;;19.48;15.98;;;;;;;15.00;65.29;99683.98;1718037;83;20882;-72
2021/11/01 12:57:16;;;;;;;21.95;15.58;;;;;;;15.06;65.11;99684.99;1716730;83;21071;-72
2021/11/01 12:59:46;;;;;;;20.12;15.60;;;;;;;15.07;65.08;99684.53;1710892;83;21517;-72
2021/11/01 13:02:29;;;;;;;19.65;16.20;;;;;;;15.08;65.10;99680.52;1718553;83;20949;-72
2021/11/01 13:04:57;;;;;;;19.52;15.43;;;;;;;15.09;65.05;99679.60;1713505;82;20952;-72
2021/11/01 13:07:36;;;;;;;21.55;14.63;;;;;;;15.10;65.03;99682.59;1710938;83;20947;-72
2021/11/01 13:10:08;;;;;;;18.92;15.45;;;;;;;15.11;65.00;99682.13;1686846;83;20877;-72
2021/11/01 13:12:55;;;;;;;19.23;16.42;;;;;;;15.11;65.00;99685.58;1690516;83;20964;-72
2021/11/01 13:20:32;;;;;;;20.05;15.70;;;;;;;15.10;64.89;99685.66;1652814;86;20889;-72
2021/11/01 13:23:01;;;;;;;18.70;16.05;;;;;;;15.09;64.89;99687.41;1696632;83;20915;-72
2021/11/01 13:25:48;;;;;;;19.45;15.95;;;;;;;15.08;64.86;99681.82;1723343;82;20948;-72
2021/11/01 13:38:41;;;;;;;24.82;16.55;;;;;;;15.03;64.82;99682.54;1674157;85;20923;-72
2021/11/01 13:41:21;;;;;;;19.67;15.78;;;;;;;15.03;64.80;99678.63;1689620;84;20896;-72
2021/11/01 13:43:40;;;;;;;20.80;16.20;;;;;;;15.04;64.81;99692.49;1687951;84;20956;-73
2021/11/01 13:46:07;;;;;;;22.53;16.77;;;;;;;15.04;64.78;99692.03;1682097;84;20983;-72
2021/11/01 13:48:33;;;;;;;19.07;16.73;;;;;;;15.05;64.76;99687.67;1675600;84;21069;-73
2021/11/01 13:51:12;;;;;;;18.45;16.42;;;;;;;15.03;64.74;99686.45;1687508;84;20966;-73
2021/11/01 13:54:05;;;;;;;21.50;16.67;;;;;;;15.01;64.71;99688.28;1689161;84;21050;-73
2021/11/01 13:56:41;;;;;;;19.98;15.98;;;;;;;15.00;64.72;99690.50;1672894;84;21066;-73
2021/11/01 13:59:55;;;;;;;19.85;16.52;;;;;;;14.99;64.69;99679.70;1675314;84;21037;-73
2021/11/01 14:20:33;;;;;;;21.10;16.95;;;;;;;14.69;64.61;99690.28;1642740;85;21589;-73
2021/11/01 14:28:34;;;;;;;21.60;17.32;;;;;;;14.56;64.60;99690.86;1671459;85;21065;-73
2021/11/01 14:31:13;;;;;;;22.13;16.42;;;;;;;14.52;64.60;99691.95;1672471;84;21138;-73
2021/11/01 14:33:55;;;;;;;;;;;;;;;14.49;64.57;99697.75;1671056;84;21070;-73
2021/11/01 15:13:39;;;;;;;24.70;17.02;;;;;;;13.96;64.71;99689.33;1674801;85;20891;-68
2021/11/01 15:21:20;;;;;;;23.70;18.23;;;;;;;13.87;64.76;99689.73;1706723;83;20941;-68
2021/11/01 15:24:08;;;;;;;21.85;17.48;;;;;;;13.83;64.76;99689.02;1706274;83;20875;-68
2021/11/01 16:17:56;;;;;;;29.67;20.62;;;;;;;13.21;65.35;99696.47;1678954;85;21338;-72
2021/11/01 16:20:12;;;;;;;30.08;21.93;;;;;;;13.18;65.40;99698.34;1679103;84;20940;-71
2021/11/01 16:22:41;;;;;;;44.50;28.40;;;;;;;13.16;65.43;99700.16;1712472;82;20913;-71
2021/11/01 16:25:08;;;;;;;34.48;25.48;;;;;;;13.14;65.48;99691.11;1710189;82;20909;-72
2021/11/01 16:27:44;;;;;;;37.60;26.77;;;;;;;13.12;65.51;99695.97;1705013;83;20929;-72
2021/11/01 16:30:13;;;;;;;47.53;32.35;;;;;;;13.10;65.53;99692.59;1661450;83;21030;-72
2021/11/01 16:32:41;;;;;;;63.17;40.73;;;;;;;13.09;65.54;99690.91;1706098;83;20956;-72
2021/11/01 16:35:07;;;;;;;80.67;52.93;;;;;;;13.07;65.61;99692.27;1710112;83;20913;-72
2021/11/01 16:38:02;;;;;;;70.57;46.05;;;;;;;13.05;65.63;99683.70;1670302;85;20976;-72
2021/11/01 16:40:27;;;;;;;53.23;36.30;;;;;;;13.04;65.67;99685.90;1667950;85;21285;-72
2021/11/01 16:42:55;;;;;;;43.13;30.65;;;;;;;13.03;65.72;99682.06;1695302;83;21568;-72
2021/11/01 16:45:27;;;;;;;42.73;27.48;;;;;;;13.01;65.74;99692.97;1710630;83;20925;-72
2021/11/01 16:47:52;;;;;;;30.40;22.42;;;;;;;13.00;65.76;99697.80;1706638;83;21052;-72
2021/11/01 16:50:19;;;;;;;28.57;20.93;;;;;;;12.97;65.83;99696.17;1709316;83;20977;-72
2021/11/01 16:52:47;;;;;;;;;;;;;;;12.96;65.89;99699.67;1679157;84;21059;-72
2021/11/01 16:57:46;;;;;;;23.38;18.35;;;;;;;12.92;65.95;99696.80;1683688;83;21111;-73
2021/11/01 17:00:24;;;;;;;24.23;19.40;;;;;;;12.88;66.02;99697.38;1710162;82;21006;-73
2021/11/01 17:05:28;;;;;;;24.82;19.52;;;;;;;12.84;66.07;99697.56;1707396;82;20985;-73
2021/11/01 17:21:36;;;;;;;34.23;21.60;;;;;;;12.75;66.37;99705.70;1709935;83;21016;-73
2021/11/01 17:24:09;;;;;;;32.03;21.07;;;;;;;12.73;66.39;99705.77;1672047;85;20976;-73
2021/11/01 17:35:00;;;;;;;34.60;24.80;;;;;;;12.67;66.55;99703.41;1709191;83;21121;-72
2021/11/01 17:37:30;;;;;;;43.15;27.65;;;;;;;12.66;66.58;99701.72;1706084;83;21064;-72
2021/11/01 18:36:21;;;;;;;45.13;27.00;;;;;;;12.49;67.30;99679.48;1704153;83;20973;-71
2021/11/01 18:36:33;;;;;;;46.37;29.65;;;;;;;12.43;67.35;99676.70;1709026;83;21533;-71
2021/11/01 18:38:52;;;;;;;43.45;29.67;;;;;;;12.42;67.48;99683.25;1711785;83;20942;-71
2021/11/01 18:46:14;;;;;;;41.23;27.25;;;;;;;12.40;67.63;99683.76;1710354;83;21004;-71
2021/11/01 18:51:37;;;;;;;49.15;26.75;;;;;;;12.37;67.75;99686.02;1692519;83;21717;-71
2021/11/01 18:54:24;;;;;;;50.43;32.17;;;;;;;12.36;67.78;99683.48;1707422;83;21091;-70
2021/11/01 18:56:54;;;;;;;50.65;32.38;;;;;;;12.34;67.84;99682.70;1703676;83;21020;-71
2021/11/01 18:59:22;;;;;;;50.10;31.15;;;;;;;12.33;67.88;99686.19;1680376;84;21560;-71
2021/11/01 19:02:36;;;;;;;44.67;29.35;;;;;;;12.31;67.92;99684.95;1707765;83;21024;-71
2021/11/01 19:04:35;;;;;;;50.95;32.20;;;;;;;12.29;67.98;99693.23;1707802;83;21006;-71
2021/11/01 19:07:14;;;;;;;51.30;32.35;;;;;;;12.28;68.02;99695.44;1681717;85;20936;-71
2021/11/01 20:04:49;;;;;;;29.37;20.82;;;;;;;11.92;69.33;99697.21;1685954;84;20746;-69
2021/11/01 20:16:20;;;;;;;28.90;22.90;;;;;;;11.77;69.09;99700.80;1682824;84;21546;-68
2021/11/01 21:25:53;;;;;;;31.77;22.13;;;;;;;11.25;70.27;99695.66;1729409;82;21409;-68
2021/11/01 21:28:21;;;;;;;35.43;22.87;;;;;;;11.25;70.35;99695.66;1729163;82;20896;-68
2021/11/01 21:30:47;;;;;;;33.70;22.22;;;;;;;11.25;70.37;99693.52;1709722;82;20897;-68
2021/11/01 21:33:22;;;;;;;30.72;23.10;;;;;;;11.23;70.37;99688.39;1720753;81;21326;-68
2021/11/01 21:35:50;;;;;;;36.93;24.72;;;;;;;11.22;70.50;99682.82;1728980;82;20919;-68
2021/11/01 21:38:16;;;;;;;31.37;22.90;;;;;;;11.19;70.48;99685.51;1729124;82;20905;-68
2021/11/01 21:40:47;;;;;;;31.45;22.67;;;;;;;11.16;70.57;99678.30;1727956;82;21361;-68
2021/11/01 21:43:15;;;;;;;34.70;23.45;;;;;;;11.15;70.59;99674.02;1725764;82;21497;-68
2021/11/01 21:45:41;;;;;;;31.40;23.25;;;;;;;11.13;70.56;99665.46;1729718;82;28910;-68
2021/11/01 21:48:07;;;;;;;37.98;23.45;;;;;;;11.10;70.69;99663.82;1671325;84;21452;-68